createdAt,value
2019-01-06T12:44:30.737Z,3.37
2019-01-06T12:49:53.744Z,4.00
2019-01-06T12:55:09.841Z,2.77
2019-01-06T13:00:37.281Z,4.73
2019-01-06T13:06:11.151Z,25.80
2019-01-06T13:11:31.561Z,5.43
2019-01-06T17:54:57.813Z,21.80
2019-01-06T18:00:12.146Z,26.20
2019-01-06T18:05:38.541Z,26.77
2019-01-06T18:10:59.756Z,25.37
2019-01-06T18:16:33.651Z,24.00
2019-01-06T18:22:01.693Z,25.13
2019-01-06T18:27:22.761Z,24.17
2019-01-06T18:32:50.517Z,23.73
2019-01-06T18:38:07.513Z,19.20
2019-01-06T18:43:29.777Z,23.97
2019-01-06T18:48:43.053Z,20.00
2019-01-06T18:54:16.640Z,16.00
2019-01-06T18:59:44.025Z,16.33
2019-01-06T19:05:13.858Z,20.30
2019-01-06T19:10:34.450Z,14.17
2019-01-06T19:15:54.815Z,18.70
2019-01-06T19:21:12.437Z,19.60
2019-01-06T19:26:46.977Z,21.87
2019-01-06T19:32:18.047Z,26.03
2019-01-06T19:37:45.445Z,24.43
2019-01-06T19:42:58.054Z,25.87
2019-01-06T19:48:13.293Z,23.63
2019-01-06T19:53:32.048Z,25.57
2019-01-06T19:59:11.880Z,29.30
2019-01-06T20:04:48.639Z,25.67
2019-01-06T20:10:22.145Z,27.43
2019-01-06T20:15:42.213Z,24.07
2019-01-06T20:21:02.570Z,28.70
2019-01-06T20:26:14.241Z,27.60
2019-01-06T20:31:37.015Z,25.77
2019-01-06T20:36:54.227Z,28.43
2019-01-06T20:42:16.322Z,25.23
2019-01-06T20:47:43.446Z,28.53
2019-01-06T20:53:10.721Z,25.30
2019-01-06T20:58:32.537Z,23.77
2019-01-06T21:03:59.123Z,25.27
2019-01-06T21:09:20.122Z,29.90
2019-01-06T21:14:38.421Z,24.43
2019-01-06T21:20:06.429Z,27.20
2019-01-06T21:25:26.932Z,23.93
